sensor_id;sensor_type;location;lat;lon;timestamp;pressure;altitude;pressure_sealevel;temperature;humidity
23016;BME280;11674;52.428;13.584;2023-02-11T00:03:01;102681.22;;;4.84;70.63
23016;BME280;11674;52.428;13.584;2023-02-11T00:08:08;102675.91;;;4.83;70.38
23016;BME280;11674;52.428;13.584;2023-02-11T00:13:15;102665.34;;;4.86;70.43
23016;BME280;11674;52.428;13.584;2023-02-11T00:18:22;102677.59;;;4.84;70.43
23016;BME280;11674;52.428;13.584;2023-02-11T00:23:29;102687.78;;;4.83;70.06
23016;BME280;11674;52.428;13.584;2023-02-11T00:28:36;102701.28;;;4.85;70.35
23016;BME280;11674;52.428;13.584;2023-02-11T00:33:44;102698.16;;;4.88;70.47
23016;BME280;11674;52.428;13.584;2023-02-11T00:38:52;102674.91;;;4.90;70.46
23016;BME280;11674;52.428;13.584;2023-02-11T00:44:00;102654.16;;;4.88;70.42
23016;BME280;11674;52.428;13.584;2023-02-11T00:49:07;102665.16;;;4.88;70.54
23016;BME280;11674;52.428;13.584;2023-02-11T00:54:15;102662.63;;;4.93;70.39
23016;BME280;11674;52.428;13.584;2023-02-11T00:59:22;102674.94;;;4.97;70.55
23016;BME280;11674;52.428;13.584;2023-02-11T01:04:29;102673.44;;;5.01;70.36
23016;BME280;11674;52.428;13.584;2023-02-11T01:09:39;102666.47;;;5.05;70.56
23016;BME280;11674;52.428;13.584;2023-02-11T01:14:46;102636.88;;;5.07;70.55
23016;BME280;11674;52.428;13.584;2023-02-11T01:19:53;102619.31;;;5.08;70.49
23016;BME280;11674;52.428;13.584;2023-02-11T01:25:00;102608.75;;;5.11;70.41
23016;BME280;11674;52.428;13.584;2023-02-11T01:30:11;102586.75;;;5.11;70.33
23016;BME280;11674;52.428;13.584;2023-02-11T01:35:20;102589.91;;;5.15;70.38
23016;BME280;11674;52.428;13.584;2023-02-11T01:40:27;102588.44;;;5.19;70.45
23016;BME280;11674;52.428;13.584;2023-02-11T01:50:55;102604.94;;;5.32;70.34
23016;BME280;11674;52.428;13.584;2023-02-11T01:56:06;102597.34;;;5.34;70.39
23016;BME280;11674;52.428;13.584;2023-02-11T02:01:16;102581.88;;;5.33;70.60
23016;BME280;11674;52.428;13.584;2023-02-11T02:11:36;102574.91;;;5.37;70.36
23016;BME280;11674;52.428;13.584;2023-02-11T02:16:43;102571.72;;;5.46;70.33
23016;BME280;11674;52.428;13.584;2023-02-11T02:27:49;102573.19;;;5.55;70.24
23016;BME280;11674;52.428;13.584;2023-02-11T02:39:05;102537.63;;;5.60;70.32
23016;BME280;11674;52.428;13.584;2023-02-11T02:44:13;102533.38;;;5.64;70.45
23016;BME280;11674;52.428;13.584;2023-02-11T02:49:20;102540.78;;;5.70;70.46
23016;BME280;11674;52.428;13.584;2023-02-11T03:10:21;102510.66;;;5.95;70.70
23016;BME280;11674;52.428;13.584;2023-02-11T03:15:33;102500.06;;;5.98;70.70
23016;BME280;11674;52.428;13.584;2023-02-11T03:20:44;102507.50;;;5.98;70.72
23016;BME280;11674;52.428;13.584;2023-02-11T03:26:20;102508.53;;;5.97;70.81
23016;BME280;11674;52.428;13.584;2023-02-11T03:37:02;102504.97;;;5.96;70.83
23016;BME280;11674;52.428;13.584;2023-02-11T03:42:13;102511.53;;;5.95;70.96
23016;BME280;11674;52.428;13.584;2023-02-11T03:47:25;102506.84;;;5.96;70.87
23016;BME280;11674;52.428;13.584;2023-02-11T03:52:34;102510.66;;;5.95;70.90
23016;BME280;11674;52.428;13.584;2023-02-11T03:57:50;102499.44;;;5.96;70.92
23016;BME280;11674;52.428;13.584;2023-02-11T04:02:58;102498.16;;;5.99;70.98
23016;BME280;11674;52.428;13.584;2023-02-11T04:08:15;102483.94;;;6.02;71.09
23016;BME280;11674;52.428;13.584;2023-02-11T04:13:29;102492.19;;;6.02;70.99
23016;BME280;11674;52.428;13.584;2023-02-11T04:18:36;102489.03;;;6.05;70.94
23016;BME280;11674;52.428;13.584;2023-02-11T04:23:43;102494.13;;;6.08;70.97
23016;BME280;11674;52.428;13.584;2023-02-11T04:28:50;102501.72;;;6.12;71.13
23016;BME280;11674;52.428;13.584;2023-02-11T04:33:57;102489.41;;;6.15;71.07
23016;BME280;11674;52.428;13.584;2023-02-11T04:39:04;102492.78;;;6.17;71.20
23016;BME280;11674;52.428;13.584;2023-02-11T04:44:11;102478.59;;;6.20;71.20
23016;BME280;11674;52.428;13.584;2023-02-11T04:49:18;102479.59;;;6.25;71.17
23016;BME280;11674;52.428;13.584;2023-02-11T04:54:25;102468.16;;;6.28;71.39
23016;BME280;11674;52.428;13.584;2023-02-11T04:59:32;102463.91;;;6.32;71.24
23016;BME280;11674;52.428;13.584;2023-02-11T05:04:39;102449.66;;;6.35;71.19
23016;BME280;11674;52.428;13.584;2023-02-11T05:09:46;102459.84;;;6.35;71.50
23016;BME280;11674;52.428;13.584;2023-02-11T05:14:53;102442.03;;;6.37;71.66
23016;BME280;11674;52.428;13.584;2023-02-11T05:20:00;102433.31;;;6.40;71.72
23016;BME280;11674;52.428;13.584;2023-02-11T05:25:07;102432.22;;;6.41;71.76
23016;BME280;11674;52.428;13.584;2023-02-11T05:30:14;102411.88;;;6.42;71.88
23016;BME280;11674;52.428;13.584;2023-02-11T05:35:21;102410.56;;;6.45;71.85
23016;BME280;11674;52.428;13.584;2023-02-11T05:40:28;102419.50;;;6.47;71.92
23016;BME280;11674;52.428;13.584;2023-02-11T05:45:35;102409.72;;;6.51;72.18
23016;BME280;11674;52.428;13.584;2023-02-11T05:50:42;102412.84;;;6.54;72.22
23016;BME280;11674;52.428;13.584;2023-02-11T05:55:49;102393.34;;;6.56;72.17
23016;BME280;11674;52.428;13.584;2023-02-11T06:00:56;102391.19;;;6.58;72.12
23016;BME280;11674;52.428;13.584;2023-02-11T06:06:03;102406.44;;;6.60;72.21
23016;BME280;11674;52.428;13.584;2023-02-11T06:11:10;102405.16;;;6.63;72.32
23016;BME280;11674;52.428;13.584;2023-02-11T06:16:17;102418.25;;;6.67;72.56
23016;BME280;11674;52.428;13.584;2023-02-11T06:21:24;102425.88;;;6.72;72.66
23016;BME280;11674;52.428;13.584;2023-02-11T06:26:31;102420.50;;;6.77;72.65
23016;BME280;11674;52.428;13.584;2023-02-11T06:31:38;102426.66;;;6.79;72.81
23016;BME280;11674;52.428;13.584;2023-02-11T06:36:45;102425.38;;;6.81;72.87
23016;BME280;11674;52.428;13.584;2023-02-11T06:41:52;102424.28;;;6.82;73.06
23016;BME280;11674;52.428;13.584;2023-02-11T06:46:59;102421.09;;;6.85;73.09
23016;BME280;11674;52.428;13.584;2023-02-11T06:52:06;102410.88;;;6.86;73.25
23016;BME280;11674;52.428;13.584;2023-02-11T06:57:13;102398.78;;;6.87;73.19
23016;BME280;11674;52.428;13.584;2023-02-11T07:02:20;102396.88;;;6.87;73.32
23016;BME280;11674;52.428;13.584;2023-02-11T07:07:27;102407.06;;;6.87;73.59
23016;BME280;11674;52.428;13.584;2023-02-11T07:12:34;102408.31;;;6.91;73.58
23016;BME280;11674;52.428;13.584;2023-02-11T07:17:41;102397.66;;;6.94;73.78
23016;BME280;11674;52.428;13.584;2023-02-11T07:22:48;102384.03;;;6.99;73.95
23016;BME280;11674;52.428;13.584;2023-02-11T07:27:55;102378.47;;;7.06;73.98
23016;BME280;11674;52.428;13.584;2023-02-11T07:33:02;102382.84;;;7.13;74.13
23016;BME280;11674;52.428;13.584;2023-02-11T07:38:09;102374.50;;;7.20;74.15
23016;BME280;11674;52.428;13.584;2023-02-11T07:43:16;102359.16;;;7.24;74.26
23016;BME280;11674;52.428;13.584;2023-02-11T07:48:23;102351.88;;;7.29;74.29
23016;BME280;11674;52.428;13.584;2023-02-11T07:53:30;102351.56;;;7.37;74.49
23016;BME280;11674;52.428;13.584;2023-02-11T07:58:38;102372.97;;;7.42;74.42
23016;BME280;11674;52.428;13.584;2023-02-11T08:03:45;102358.63;;;7.51;74.42
23016;BME280;11674;52.428;13.584;2023-02-11T08:08:52;102367.28;;;7.55;74.42
23016;BME280;11674;52.428;13.584;2023-02-11T08:13:59;102379.06;;;7.62;74.52
23016;BME280;11674;52.428;13.584;2023-02-11T08:19:10;102399.41;;;7.67;74.54
23016;BME280;11674;52.428;13.584;2023-02-11T08:24:18;102407.38;;;7.75;74.52
23016;BME280;11674;52.428;13.584;2023-02-11T08:29:25;102399.16;;;7.87;74.73
23016;BME280;11674;52.428;13.584;2023-02-11T08:34:32;102395.00;;;7.96;74.55
23016;BME280;11674;52.428;13.584;2023-02-11T08:39:39;102407.28;;;8.00;74.51
23016;BME280;11674;52.428;13.584;2023-02-11T08:44:46;102413.78;;;8.05;74.59
23016;BME280;11674;52.428;13.584;2023-02-11T08:49:53;102422.44;;;8.09;74.69
23016;BME280;11674;52.428;13.584;2023-02-11T08:55:00;102402.28;;;8.08;74.55
23016;BME280;11674;52.428;13.584;2023-02-11T09:00:07;102388.69;;;8.07;74.68
23016;BME280;11674;52.428;13.584;2023-02-11T09:05:14;102371.03;;;8.08;74.83
23016;BME280;11674;52.428;13.584;2023-02-11T09:10:21;102372.03;;;8.13;75.20
23016;BME280;11674;52.428;13.584;2023-02-11T09:15:28;102375.75;;;8.19;75.13
23016;BME280;11674;52.428;13.584;2023-02-11T09:20:35;102383.13;;;8.25;75.05
23016;BME280;11674;52.428;13.584;2023-02-11T09:25:42;102381.00;;;8.27;75.09
23016;BME280;11674;52.428;13.584;2023-02-11T09:30:49;102405.88;;;8.27;75.21
23016;BME280;11674;52.428;13.584;2023-02-11T09:35:59;102398.19;;;8.29;75.15
23016;BME280;11674;52.428;13.584;2023-02-11T09:46:26;102414.91;;;8.34;75.28
23016;BME280;11674;52.428;13.584;2023-02-11T09:57:08;102429.09;;;8.37;75.35
23016;BME280;11674;52.428;13.584;2023-02-11T10:08:05;102443.78;;;8.38;75.53
23016;BME280;11674;52.428;13.584;2023-02-11T10:24:09;102455.13;;;8.59;75.74
23016;BME280;11674;52.428;13.584;2023-02-11T10:34:24;102471.03;;;8.64;75.87
23016;BME280;11674;52.428;13.584;2023-02-11T10:39:31;102438.91;;;8.63;75.81
23016;BME280;11674;52.428;13.584;2023-02-11T10:44:41;102437.84;;;8.64;75.90
23016;BME280;11674;52.428;13.584;2023-02-11T10:49:51;102423.31;;;8.68;76.01
23016;BME280;11674;52.428;13.584;2023-02-11T11:06:03;102423.75;;;8.65;76.44
23016;BME280;11674;52.428;13.584;2023-02-11T11:11:12;102405.25;;;8.66;76.32
23016;BME280;11674;52.428;13.584;2023-02-11T11:16:23;102391.06;;;8.62;76.47
23016;BME280;11674;52.428;13.584;2023-02-11T11:21:54;102404.66;;;8.64;76.52
23016;BME280;11674;52.428;13.584;2023-02-11T11:27:03;102395.72;;;8.62;76.65
23016;BME280;11674;52.428;13.584;2023-02-11T11:37:23;102405.84;;;8.68;76.79
23016;BME280;11674;52.428;13.584;2023-02-11T11:42:33;102404.66;;;8.64;76.97
23016;BME280;11674;52.428;13.584;2023-02-11T11:58:24;102403.84;;;8.75;77.48
23016;BME280;11674;52.428;13.584;2023-02-11T12:08:49;102402.50;;;8.89;77.69
23016;BME280;11674;52.428;13.584;2023-02-11T12:46:42;102387.84;;;9.23;78.09
23016;BME280;11674;52.428;13.584;2023-02-11T12:57:51;102413.97;;;9.27;78.21
23016;BME280;11674;52.428;13.584;2023-02-11T13:03:14;102406.38;;;9.34;78.28
23016;BME280;11674;52.428;13.584;2023-02-11T13:08:41;102416.97;;;9.37;78.19
23016;BME280;11674;52.428;13.584;2023-02-11T13:13:56;102412.88;;;9.39;78.23
23016;BME280;11674;52.428;13.584;2023-02-11T13:30:28;102425.78;;;9.22;78.26
23016;BME280;11674;52.428;13.584;2023-02-11T13:35:37;102444.78;;;9.19;78.16
23016;BME280;11674;52.428;13.584;2023-02-11T13:46:13;102452.00;;;9.20;78.24
23016;BME280;11674;52.428;13.584;2023-02-11T13:51:38;102446.69;;;9.18;78.30
23016;BME280;11674;52.428;13.584;2023-02-11T14:02:31;102455.25;;;9.17;78.52
23016;BME280;11674;52.428;13.584;2023-02-11T14:23:43;102444.53;;;9.09;78.62
23016;BME280;11674;52.428;13.584;2023-02-11T14:34:43;102451.41;;;9.06;79.13
23016;BME280;11674;52.428;13.584;2023-02-11T14:45:05;102464.50;;;9.11;79.15
23016;BME280;11674;52.428;13.584;2023-02-11T14:50:18;102451.28;;;9.13;79.16
23016;BME280;11674;52.428;13.584;2023-02-11T15:06:01;102488.59;;;9.22;79.27
23016;BME280;11674;52.428;13.584;2023-02-11T15:11:11;102493.19;;;9.28;79.38
23016;BME280;11674;52.428;13.584;2023-02-11T15:16:22;102496.06;;;9.33;79.25
23016;BME280;11674;52.428;13.584;2023-02-11T15:21:31;102500.78;;;9.32;79.50
23016;BME280;11674;52.428;13.584;2023-02-11T15:26:39;102509.31;;;9.31;79.65
23016;BME280;11674;52.428;13.584;2023-02-11T15:31:46;102530.16;;;9.33;79.84
23016;BME280;11674;52.428;13.584;2023-02-11T15:36:53;102516.91;;;9.35;79.78
23016;BME280;11674;52.428;13.584;2023-02-11T15:47:26;102529.06;;;9.34;80.01
23016;BME280;11674;52.428;13.584;2023-02-11T15:52:33;102534.38;;;9.36;80.07
23016;BME280;11674;52.428;13.584;2023-02-11T15:57:46;102526.91;;;9.36;80.06
23016;BME280;11674;52.428;13.584;2023-02-11T16:02:54;102534.16;;;9.37;80.06
23016;BME280;11674;52.428;13.584;2023-02-11T16:08:25;102528.38;;;9.39;80.35
23016;BME280;11674;52.428;13.584;2023-02-11T16:13:46;102531.38;;;9.37;80.43
23016;BME280;11674;52.428;13.584;2023-02-11T16:18:54;102528.84;;;9.36;80.44
23016;BME280;11674;52.428;13.584;2023-02-11T16:24:01;102553.75;;;9.36;80.64
23016;BME280;11674;52.428;13.584;2023-02-11T16:29:22;102546.03;;;9.38;80.70
23016;BME280;11674;52.428;13.584;2023-02-11T16:34:29;102545.81;;;9.39;80.55
23016;BME280;11674;52.428;13.584;2023-02-11T16:39:36;102547.03;;;9.43;80.67
23016;BME280;11674;52.428;13.584;2023-02-11T16:44:43;102559.56;;;9.46;80.66
23016;BME280;11674;52.428;13.584;2023-02-11T16:49:51;102543.28;;;9.49;80.72
23016;BME280;11674;52.428;13.584;2023-02-11T16:54:58;102577.53;;;9.55;80.76
23016;BME280;11674;52.428;13.584;2023-02-11T17:00:06;102588.75;;;9.60;80.79
23016;BME280;11674;52.428;13.584;2023-02-11T17:05:18;102599.31;;;9.63;80.75
23016;BME280;11674;52.428;13.584;2023-02-11T17:10:25;102609.94;;;9.66;80.76
23016;BME280;11674;52.428;13.584;2023-02-11T17:15:32;102607.63;;;9.63;80.80
23016;BME280;11674;52.428;13.584;2023-02-11T17:20:40;102614.13;;;9.57;81.25
23016;BME280;11674;52.428;13.584;2023-02-11T17:25:54;102622.69;;;9.55;81.27
23016;BME280;11674;52.428;13.584;2023-02-11T17:31:05;102622.09;;;9.53;81.22
23016;BME280;11674;52.428;13.584;2023-02-11T17:36:12;102630.63;;;9.52;81.42
23016;BME280;11674;52.428;13.584;2023-02-11T17:41:19;102631.22;;;9.54;81.31
23016;BME280;11674;52.428;13.584;2023-02-11T17:46:27;102647.38;;;9.57;81.46
23016;BME280;11674;52.428;13.584;2023-02-11T17:51:36;102655.59;;;9.63;81.45
23016;BME280;11674;52.428;13.584;2023-02-11T17:56:44;102652.09;;;9.68;81.27
23016;BME280;11674;52.428;13.584;2023-02-11T18:01:51;102672.09;;;9.70;81.18
23016;BME280;11674;52.428;13.584;2023-02-11T18:07:05;102668.28;;;9.71;81.41
23016;BME280;11674;52.428;13.584;2023-02-11T18:12:12;102678.25;;;9.72;81.29
23016;BME280;11674;52.428;13.584;2023-02-11T18:17:21;102688.84;;;9.75;81.38
23016;BME280;11674;52.428;13.584;2023-02-11T18:22:27;102690.31;;;9.77;81.34
23016;BME280;11674;52.428;13.584;2023-02-11T18:27:34;102689.00;;;9.80;81.45
23016;BME280;11674;52.428;13.584;2023-02-11T18:32:42;102709.63;;;9.84;81.43
23016;BME280;11674;52.428;13.584;2023-02-11T18:37:50;102714.19;;;9.90;81.62
23016;BME280;11674;52.428;13.584;2023-02-11T18:42:56;102721.19;;;9.92;81.42
23016;BME280;11674;52.428;13.584;2023-02-11T18:48:03;102725.53;;;9.88;81.62
23016;BME280;11674;52.428;13.584;2023-02-11T18:53:12;102734.94;;;9.87;81.55
23016;BME280;11674;52.428;13.584;2023-02-11T18:58:19;102734.09;;;9.87;81.61
23016;BME280;11674;52.428;13.584;2023-02-11T19:03:26;102744.94;;;9.88;81.59
23016;BME280;11674;52.428;13.584;2023-02-11T19:08:33;102749.66;;;9.88;81.55
23016;BME280;11674;52.428;13.584;2023-02-11T19:13:40;102756.63;;;9.90;81.81
23016;BME280;11674;52.428;13.584;2023-02-11T19:18:47;102761.97;;;9.92;81.79
23016;BME280;11674;52.428;13.584;2023-02-11T19:23:54;102776.88;;;9.91;81.64
23016;BME280;11674;52.428;13.584;2023-02-11T19:29:02;102776.88;;;9.91;81.49
23016;BME280;11674;52.428;13.584;2023-02-11T19:34:11;102784.97;;;9.92;81.77
23016;BME280;11674;52.428;13.584;2023-02-11T19:39:17;102782.41;;;9.91;81.80
23016;BME280;11674;52.428;13.584;2023-02-11T19:44:24;102791.38;;;9.93;81.91
23016;BME280;11674;52.428;13.584;2023-02-11T19:49:32;102783.41;;;9.96;81.74
23016;BME280;11674;52.428;13.584;2023-02-11T19:54:38;102779.19;;;9.94;81.53
23016;BME280;11674;52.428;13.584;2023-02-11T19:59:45;102785.97;;;9.98;82.00
23016;BME280;11674;52.428;13.584;2023-02-11T20:04:52;102795.47;;;10.02;81.65
23016;BME280;11674;52.428;13.584;2023-02-11T20:09:59;102802.09;;;10.01;81.65
23016;BME280;11674;52.428;13.584;2023-02-11T20:15:07;102811.03;;;10.03;81.78
23016;BME280;11674;52.428;13.584;2023-02-11T20:20:13;102815.03;;;10.07;81.79
23016;BME280;11674;52.428;13.584;2023-02-11T20:25:20;102823.13;;;10.08;81.82
23016;BME280;11674;52.428;13.584;2023-02-11T20:30:27;102820.13;;;10.10;81.87
23016;BME280;11674;52.428;13.584;2023-02-11T20:35:34;102819.03;;;10.11;81.76
23016;BME280;11674;52.428;13.584;2023-02-11T20:40:41;102833.88;;;10.05;81.82
23016;BME280;11674;52.428;13.584;2023-02-11T20:45:48;102839.00;;;10.01;81.61
23016;BME280;11674;52.428;13.584;2023-02-11T20:51:01;102853.31;;;9.98;81.78
23016;BME280;11674;52.428;13.584;2023-02-11T20:56:11;102869.13;;;9.98;81.92
23016;BME280;11674;52.428;13.584;2023-02-11T21:01:39;102860.31;;;10.01;82.06
23016;BME280;11674;52.428;13.584;2023-02-11T21:06:48;102863.97;;;10.01;81.86
23016;BME280;11674;52.428;13.584;2023-02-11T21:11:56;102870.81;;;9.99;81.82
23016;BME280;11674;52.428;13.584;2023-02-11T21:17:02;102885.28;;;10.01;81.87
23016;BME280;11674;52.428;13.584;2023-02-11T21:22:09;102887.22;;;10.00;81.76
23016;BME280;11674;52.428;13.584;2023-02-11T21:27:16;102891.69;;;10.01;82.04
23016;BME280;11674;52.428;13.584;2023-02-11T21:32:23;102900.41;;;10.05;82.02
23016;BME280;11674;52.428;13.584;2023-02-11T21:37:30;102916.81;;;10.06;81.85
23016;BME280;11674;52.428;13.584;2023-02-11T21:42:37;102920.69;;;10.05;81.98
23016;BME280;11674;52.428;13.584;2023-02-11T21:47:44;102920.00;;;10.03;81.77
23016;BME280;11674;52.428;13.584;2023-02-11T21:52:51;102926.88;;;10.01;81.95
23016;BME280;11674;52.428;13.584;2023-02-11T21:57:58;102936.88;;;10.02;81.88
23016;BME280;11674;52.428;13.584;2023-02-11T22:03:05;102936.28;;;10.00;81.92
23016;BME280;11674;52.428;13.584;2023-02-11T22:08:12;102943.13;;;9.97;81.99
23016;BME280;11674;52.428;13.584;2023-02-11T22:13:19;102951.22;;;9.99;82.08
23016;BME280;11674;52.428;13.584;2023-02-11T22:18:26;102956.53;;;10.00;81.81
23016;BME280;11674;52.428;13.584;2023-02-11T22:23:35;102975.69;;;10.02;81.82
23016;BME280;11674;52.428;13.584;2023-02-11T22:28:42;102986.19;;;10.00;82.16
23016;BME280;11674;52.428;13.584;2023-02-11T22:33:48;102995.13;;;10.02;82.02
23016;BME280;11674;52.428;13.584;2023-02-11T22:38:59;102988.09;;;9.99;82.04
23016;BME280;11674;52.428;13.584;2023-02-11T22:44:06;103009.84;;;10.02;82.01
23016;BME280;11674;52.428;13.584;2023-02-11T22:49:14;103007.28;;;10.01;81.84
23016;BME280;11674;52.428;13.584;2023-02-11T22:54:21;103021.16;;;10.01;81.79
23016;BME280;11674;52.428;13.584;2023-02-11T22:59:28;103025.63;;;10.02;81.95
23016;BME280;11674;52.428;13.584;2023-02-11T23:04:35;103032.66;;;10.04;81.80
23016;BME280;11674;52.428;13.584;2023-02-11T23:09:42;103025.63;;;10.02;81.71
23016;BME280;11674;52.428;13.584;2023-02-11T23:14:50;103029.47;;;10.01;81.89
23016;BME280;11674;52.428;13.584;2023-02-11T23:19:56;103036.09;;;10.00;81.95
23016;BME280;11674;52.428;13.584;2023-02-11T23:25:04;103039.56;;;9.95;81.72
23016;BME280;11674;52.428;13.584;2023-02-11T23:30:11;103038.72;;;9.95;81.89
23016;BME280;11674;52.428;13.584;2023-02-11T23:35:19;103037.03;;;9.94;82.06
23016;BME280;11674;52.428;13.584;2023-02-11T23:40:25;103034.84;;;9.96;81.92
23016;BME280;11674;52.428;13.584;2023-02-11T23:45:32;103037.84;;;9.94;81.84
23016;BME280;11674;52.428;13.584;2023-02-11T23:50:39;103049.41;;;9.91;81.96
23016;BME280;11674;52.428;13.584;2023-02-11T23:55:46;103053.50;;;9.89;81.95
